Flight Track Log - Related Links

Times and Time Zones

All times are in EDT time to prevent confusion due to time zone crossing. See the FIV521 flight status page for this flight to view local times or setup timezone preferences in your user account.

Time Position Orientation Groundspeed Altitude Reporting Facility
EDT Latitude Longitude Course Direction KTS MPH feet Rate Location/Type
Thu 03:18:24 PM 33.9833 -83.9167 180° South 187 215 2,500  Level Atlanta TRACON
Thu 03:19:18 PM 33.9167 -83.9167 180° South 237 273 4,800 2,900 Climbing Atlanta TRACON
Thu 03:20:24 PM 33.8333 -83.9000 171° South 254 292 8,300 2,100 Climbing Atlanta TRACON
Thu 03:21:18 PM 33.7667 -83.9167 192° South 277 319 9,000 350 Climbing Atlanta TRACON
Thu 03:22:24 PM 33.7000 -83.9500 203° Southwest 265 305 9,000  Level Atlanta TRACON
Thu 03:23:24 PM 33.6500 -84.0000 220° Southwest 269 310 9,000 316 Level Atlanta TRACON
Thu 03:24:18 PM 33.5833 -84.0000 180° South 267 307 9,600 1,602 Climbing Atlanta TRACON
Thu 03:26:05 PM 33.4497 -84.0439 195° South 291 335 13,300 1,581 Climbing Atlanta Center
Thu 03:27:05 PM 33.3642 -84.0611 190° South 299 344 14,000 350 Climbing Atlanta Center
Thu 03:28:05 PM 33.2642 -84.0711 185° South 343 395 14,000 800 Level Atlanta Center
Thu 03:29:05 PM 33.1681 -84.0711 180° South 357 411 15,600 1,850 Climbing Atlanta Center
Thu 03:30:05 PM 33.0783 -84.0339 161° South 357 411 17,700 1,850 Climbing Atlanta Center
Thu 03:31:05 PM 33.0072 -83.9819 149° Southeast 335 386 19,300 1,800 Climbing Atlanta Center
Thu 03:32:05 PM 32.9258 -83.9150 145° Southeast 348 400 21,300 1,950 Climbing Atlanta Center
Thu 03:33:05 PM 32.8444 -83.8461 145° Southeast 353 406 23,200 1,700 Climbing Atlanta Center
Thu 03:34:05 PM 32.7586 -83.7794 147° Southeast 359 413 24,700 1,500 Climbing Atlanta Center
Thu 03:35:05 PM 32.6708 -83.7081 146° Southeast 371 427 26,200 1,450 Climbing Atlanta Center
Thu 03:36:05 PM 32.5786 -83.6344 146° Southeast 382 440 27,600 1,400 Climbing Atlanta Center
Thu 03:37:05 PM 32.4844 -83.5586 146° Southeast 402 463 29,000 700 Climbing Atlanta Center
Thu 03:38:05 PM 32.3861 -83.4806 146° Southeast 416 479 29,000  Level Atlanta Center
Thu 03:39:05 PM 32.2731 -83.3878 145° Southeast 439 505 29,000  Level Atlanta Center
Thu 03:40:05 PM 32.1639 -83.3028 147° Southeast 457 526 29,000  Level Atlanta Center
Thu 03:41:05 PM 32.0569 -83.2203 147° Southeast 462 532 29,000 639 Level Atlanta Center
Thu 03:44:56 PM 31.6592 -82.9022 146° Southeast 438 504 32,100 866 Climbing Jacksonville Center
Thu 03:45:56 PM 31.5569 -82.8219 146° Southeast 438 504 33,200 950 Climbing Jacksonville Center
Thu 03:46:56 PM 31.4503 -82.7417 147° Southeast 438 504 34,000 950 Climbing Jacksonville Center
Thu 03:47:56 PM 31.3478 -82.6614 146° Southeast 438 504 35,100 950 Climbing Jacksonville Center
Thu 03:48:56 PM 31.2517 -82.5914 148° Southeast 444 511 35,900 450 Climbing Jacksonville Center
Thu 03:49:56 PM 31.1428 -82.5067 146° Southeast 457 526 36,000 50 Climbing Jacksonville Center
Thu 03:50:56 PM 31.0339 -82.4197 146° Southeast 471 542 36,000  Level Jacksonville Center
Thu 03:51:56 PM 30.9208 -82.3356 147° Southeast 477 549 36,000  Level Jacksonville Center
Thu 03:52:56 PM 30.8078 -82.2467 146° Southeast 488 562 36,000  Level Jacksonville Center
Thu 03:53:56 PM 30.6967 -82.1631 147° Southeast 488 562 36,000  Level Jacksonville Center
Thu 03:54:56 PM 30.5856 -82.0769 146° Southeast 488 562 36,000  Level Jacksonville Center
Thu 03:55:56 PM 30.4594 -81.9769 146° Southeast 488 562 36,000  Level Jacksonville Center
Thu 03:56:56 PM 30.3461 -81.8911 147° Southeast 498 573 36,000  Level Jacksonville Center
Thu 03:57:56 PM 30.2325 -81.8036 146° Southeast 492 566 36,000  Level Jacksonville Center
Thu 03:58:56 PM 30.1214 -81.7231 148° Southeast 486 559 36,000  Level Jacksonville Center
Thu 03:59:56 PM 30.0056 -81.6381 148° Southeast 486 559 36,000  Level Jacksonville Center
Thu 04:00:56 PM 29.8919 -81.5533 147° Southeast 486 559 36,000  Level Jacksonville Center
Thu 04:01:56 PM 29.7806 -81.4711 147° Southeast 486 559 36,000  Level Jacksonville Center
Thu 04:02:56 PM 29.6667 -81.3867 147° Southeast 486 559 36,000  Level Jacksonville Center
Thu 04:03:56 PM 29.5572 -81.3025 146° Southeast 486 559 36,000  Level Jacksonville Center
Thu 04:04:56 PM 29.4475 -81.2208 147° Southeast 481 554 36,000  Level Jacksonville Center
Thu 04:05:56 PM 29.3381 -81.1369 146° Southeast 481 554 36,000 -300 Level Jacksonville Center
Thu 04:06:56 PM 29.2242 -81.0581 149° Southeast 481 554 35,400 -800 Descending Jacksonville Center
Thu 04:07:56 PM 29.1122 -80.9744 147° Southeast 481 554 34,400 -700 Descending Jacksonville Center
Thu 04:08:56 PM 28.9942 -80.8939 149° Southeast 487 560 34,000 -128 Descending Jacksonville Center
Thu 04:11:03 PM 28.7625 -80.6969 143° Southeast 482 555 34,000 -481 Level Miami Center
Thu 04:12:03 PM 28.7117 -80.5722 115° Southeast 471 542 32,500 -1,550 Descending Miami Center
Thu 04:13:03 PM 28.6567 -80.4403 115° Southeast 471 542 30,900 -1,750 Descending Miami Center
Thu 04:14:03 PM 28.5936 -80.2917 116° Southeast 466 536 29,000 -1,700 Descending Miami Center
Thu 04:15:03 PM 28.5189 -80.1783 127° Southeast 466 536 27,500 -1,700 Descending Miami Center
Thu 04:16:03 PM 28.3978 -80.1819 182° South 397 457 25,600 -1,750 Descending Miami Center
Thu 04:17:03 PM 28.3047 -80.2333 206° Southwest 397 457 24,000 -1,550 Descending Miami Center
Thu 04:18:03 PM 28.1914 -80.2631 193° South 403 464 22,500 -1,750 Descending Miami Center
Thu 04:19:03 PM 28.0667 -80.2450 173° South 408 470 20,500 -1,750 Descending Miami Center
Thu 04:20:03 PM 27.9564 -80.2300 173° South 408 470 19,000 -1,500 Descending Miami Center
Thu 04:21:03 PM 27.8461 -80.2150 173° South 408 470 17,500 -1,550 Descending Miami Center
Thu 04:22:03 PM 27.7525 -80.2006 172° South 387 445 15,900 -1,500 Descending Miami Center
Thu 04:23:03 PM 27.6464 -80.1858 173° South 387 445 14,500 -1,550 Descending Miami Center
Thu 04:24:03 PM 27.5361 -80.1708 173° South 382 440 12,800 -1,550 Descending Miami Center
Thu 04:25:03 PM 27.4361 -80.1561 173° South 376 433 11,400 -1,250 Descending Miami Center
Thu 04:26:03 PM 27.3528 -80.1444 173° South 330 380 10,300 -700 Descending Miami Center
Thu 04:27:03 PM 27.2819 -80.1378 175° South 293 337 10,000 -450 Descending Miami Center
Thu 04:28:03 PM 27.2075 -80.1122 163° South 282 325 9,400 -1,150 Descending Miami Center
Thu 04:29:03 PM 27.1311 -80.0728 155° Southeast 276 318 7,700 -1,500 Descending Miami Center
Thu 04:30:03 PM 27.0567 -80.0358 156° South 282 325 6,400 -1,150 Descending Miami Center
Thu 04:31:03 PM 26.9844 -80.0011 157° South 287 330 5,400 -700 Descending Miami Center
Thu 04:32:03 PM 26.9214 -80.0111 188° South 258 297 5,000 -200 Descending Miami Center
Thu 04:33:03 PM 26.8556 -80.0700 219° Southwest 261 300 5,000  Level Miami Center
Thu 04:33:55 PM 26.7903 -80.0892 195° South 276 318 5,000  Level Miami Center
Thu 04:35:09 PM 26.6939 -80.1050 188° South 269 310 5,000 -553 Level Miami Center
Thu 04:36:16 PM 26.6142 -80.1214 190° South 264 304 3,700 -930 Descending Miami Center
Thu 04:37:18 PM 26.5428 -80.1333 189° South 258 297 3,000 -1,077 Descending Miami Center
Thu 04:38:13 PM 26.4819 -80.1456 190° South 232 267 1,600 -738 Descending Miami Center
Thu 04:39:20 PM 26.4150 -80.1531 186° South 207 238 1,500 -133 Descending Miami Center
Thu 04:40:28 PM 26.3711 -80.1564 184° South 141 162 1,300 -537 Descending Miami Center
Thu 04:41:23 PM 26.3592 -80.1283 115° Southeast 112 129 400 -982 Descending Miami Center
Thu 04:43:00 PM 26.3667 -80.1000 42° Northeast  Level FlightAware Approximate
Thu 04:50:00 PM 26.3785 -80.1077 42° Northeast  Level Estimated

Login

Don't have an account? Register now (free) for customized features, flight alerts, and more!